Time;durP1;ratioP1;P1;durP2;ratioP2;P2;SDS_P1;SDS_P2;PMS_P1;PMS_P2;Temp;Humidity;BMP_temperature;BMP_pressure;BME280_temperature;BME280_humidity;BME280_pressure;Samples;Min_cycle;Max_cycle;Signal;HPM_P1;HPM_P2
2021/10/23 00:01:21;;;;;;;;;;;;;;;6.00;70.08;97283.44;5074321;28;20416;-79
2021/10/23 00:03:47;;;;;;;;;;;;;;;6.00;70.56;97287.84;5074139;28;19998;-78
2021/10/23 00:06:13;;;;;;;;;;;;;;;6.02;70.67;97294.50;5074004;28;19955;-78
2021/10/23 00:08:38;;;;;;;;;;;;;;;6.05;71.10;97293.38;5074138;28;19958;-78
2021/10/23 00:11:04;;;;;;;;;;;;;;;6.05;70.45;97288.16;5073913;28;19998;-78
2021/10/23 00:13:30;;;;;;;;;;;;;;;6.05;70.71;97283.75;5074302;28;20329;-78
2021/10/23 00:15:56;;;;;;;;;;;;;;;6.05;70.57;97281.16;5073766;28;20067;-78
2021/10/23 00:18:22;;;;;;;;;;;;;;;6.04;70.35;97273.50;5074174;28;20378;-78
2021/10/23 00:20:48;;;;;;;;;;;;;;;6.06;70.33;97280.16;5073931;28;19951;-78
2021/10/23 00:23:14;;;;;;;;;;;;;;;6.07;70.35;97286.22;5073716;28;19983;-78
2021/10/23 00:25:40;;;;;;;;;;;;;;;6.05;69.85;97282.97;5073947;28;19953;-78
2021/10/23 00:28:06;;;;;;;;;;;;;;;6.01;70.85;97281.66;5072945;28;20396;-78
2021/10/23 00:30:32;;;;;;;;;;;;;;;6.01;70.57;97279.06;5073748;28;20046;-78
2021/10/23 00:33:01;;;;;;;;;;;;;;;6.02;70.79;97281.47;5073828;28;19952;-78
2021/10/23 00:35:28;;;;;;;;;;;;;;;6.01;70.34;97289.47;5073728;28;19956;-78
2021/10/23 00:37:54;;;;;;;;;;;;;;;6.00;70.41;97286.03;5073644;28;19956;-78
2021/10/23 00:40:20;;;;;;;;;;;;;;;6.00;70.99;97293.84;5073816;28;20430;-78
2021/10/23 00:42:46;;;;;;;;;;;;;;;6.01;71.22;97287.69;5073589;28;20429;-78
2021/10/23 00:45:12;;;;;;;;;;;;;;;6.00;71.14;97293.84;5073468;28;19951;-78
2021/10/23 00:47:38;;;;;;;;;;;;;;;6.03;71.28;97292.72;5073648;28;19963;-78
2021/10/23 00:50:04;;;;;;;;;;;;;;;6.02;71.19;97291.09;5073645;28;19956;-78
2021/10/23 00:52:30;;;;;;;;;;;;;;;6.03;71.39;97298.75;5073394;28;19974;-78
2021/10/23 00:54:56;;;;;;;;;;;;;;;6.05;72.00;97299.38;5073379;28;19964;-78
2021/10/23 00:57:22;;;;;;;;;;;;;;;6.06;71.62;97301.00;5073736;28;20364;-78
2021/10/23 00:59:48;;;;;;;;;;;;;;;6.08;70.99;97303.44;5073398;28;19958;-78
2021/10/23 01:02:14;;;;;;;;;;;;;;;6.10;71.87;97304.88;5073662;28;19958;-78
2021/10/23 01:04:40;;;;;;;;;;;;;;;6.12;71.59;97298.72;5073491;28;19953;-78
2021/10/23 01:07:06;;;;;;;;;;;;;;;6.13;71.39;97300.31;5073573;28;19955;-78
2021/10/23 01:09:34;;;;;;;;;;;;;;;6.12;71.70;97301.31;5075951;28;20431;-78
2021/10/23 01:12:03;;;;;;;;;;;;;;;6.11;71.45;97297.91;5077588;28;19955;-78
2021/10/23 01:14:29;;;;;;;;;;;;;;;6.10;71.80;97304.88;5077454;28;19978;-78
2021/10/23 01:16:56;;;;;;;;;;;;;;;6.10;72.51;97299.69;5077395;28;19991;-78
2021/10/23 01:19:22;;;;;;;;;;;;;;;6.12;71.97;97298.72;5077205;28;19954;-77
2021/10/23 01:21:49;;;;;;;;;;;;;;;6.13;72.32;97300.31;5077108;28;19954;-78
2021/10/23 01:24:15;;;;;;;;;;;;;;;6.13;71.81;97287.31;5077114;28;19963;-78
2021/10/23 01:26:41;;;;;;;;;;;;;;;6.13;71.86;97289.91;5077332;28;19959;-78
2021/10/23 01:29:10;;;;;;;;;;;;;;;6.15;72.34;97293.97;5077226;28;19951;-78
2021/10/23 01:31:35;;;;;;;;;;;;;;;6.15;71.90;97291.34;5076916;28;20331;-78
2021/10/23 01:34:10;;;;;;;;;;;;;;;6.15;71.54;97291.34;5077144;28;20008;-78
2021/10/23 01:36:40;;;;;;;;;;;;;;;6.16;71.51;97295.59;5076924;28;19964;-78
2021/10/23 01:39:06;;;;;;;;;;;;;;;6.14;71.68;97294.97;5077095;28;19949;-78
2021/10/23 01:41:32;;;;;;;;;;;;;;;6.15;72.10;97296.56;5077024;28;20370;-78
2021/10/23 01:43:58;;;;;;;;;;;;;;;6.15;72.26;97300.97;5077027;28;19956;-78
2021/10/23 01:46:24;;;;;;;;;;;;;;;6.15;72.52;97300.97;5076941;28;19951;-78
2021/10/23 01:48:50;;;;;;;;;;;;;;;6.15;72.40;97308.78;5076662;28;20049;-78
2021/10/23 01:51:15;;;;;;;;;;;;;;;6.14;72.47;97292.34;5076547;28;19960;-77
2021/10/23 01:53:41;;;;;;;;;;;;;;;6.14;72.50;97297.56;5076588;28;20433;-78
2021/10/23 01:56:07;;;;;;;;;;;;;;;6.12;72.28;97298.72;5076599;28;19974;-78
2021/10/23 01:58:33;;;;;;;;;;;;;;;6.12;72.70;97304.72;5076721;28;19957;-78
2021/10/23 02:00:59;;;;;;;;;;;;;;;6.12;72.54;97296.91;5076520;28;20045;-78
2021/10/23 02:03:25;;;;;;;;;;;;;;;6.15;72.98;97314.00;5076614;28;19955;-78
2021/10/23 02:05:51;;;;;;;;;;;;;;;6.15;73.08;97306.19;5076397;28;20398;-78
2021/10/23 02:08:17;;;;;;;;;;;;;;;6.16;73.08;97308.63;5076765;28;19957;-78
2021/10/23 02:10:42;;;;;;;;;;;;;;;6.17;73.28;97304.22;5076469;28;20424;-78
2021/10/23 02:13:08;;;;;;;;;;;;;;;6.17;72.99;97299.81;5076526;28;19995;-78
2021/10/23 02:15:34;;;;;;;;;;;;;;;6.19;72.73;97297.84;5076455;28;19957;-78
2021/10/23 02:18:00;;;;;;;;;;;;;;;6.19;73.07;97305.66;5076144;28;19963;-78
2021/10/23 02:20:27;;;;;;;;;;;;;;;6.20;73.24;97296.09;5075946;28;19961;-78
2021/10/23 02:22:53;;;;;;;;;;;;;;;6.20;72.71;97301.28;5076123;28;19954;-78
2021/10/23 02:25:19;;;;;;;;;;;;;;;6.20;73.08;97309.91;5076062;28;19964;-78
2021/10/23 02:27:44;;;;;;;;;;;;;;;6.20;73.10;97309.91;5076258;28;20041;-78
2021/10/23 02:30:10;;;;;;;;;;;;;;;6.21;73.25;97306.31;5076299;28;19960;-78
2021/10/23 02:32:36;;;;;;;;;;;;;;;6.22;73.83;97305.34;5076126;28;20516;-78
2021/10/23 02:35:03;;;;;;;;;;;;;;;6.23;73.52;97306.94;5076182;28;20415;-78
2021/10/23 02:37:28;;;;;;;;;;;;;;;6.22;73.70;97307.94;5075827;28;20344;-78
2021/10/23 02:39:54;;;;;;;;;;;;;;;6.25;73.53;97310.19;5076129;28;19952;-77
2021/10/23 02:42:20;;;;;;;;;;;;;;;6.26;73.72;97306.63;5075690;28;19953;-78
2021/10/23 02:44:46;;;;;;;;;;;;;;;6.26;73.46;97314.44;5075633;28;19997;-78
2021/10/23 02:47:12;;;;;;;;;;;;;;;6.27;74.21;97318.66;5076137;28;19946;-78
2021/10/23 02:49:38;;;;;;;;;;;;;;;6.27;74.27;97315.25;5074460;28;19952;-78
2021/10/23 02:52:04;;;;;;;;;;;;;;;6.28;74.21;97329.91;5075837;28;19985;-78
2021/10/23 02:54:30;;;;;;;;;;;;;;;6.27;74.19;97323.06;5075595;28;19950;-78
2021/10/23 02:56:57;;;;;;;;;;;;;;;6.27;74.08;97329.09;5075351;28;19975;-78
2021/10/23 02:59:23;;;;;;;;;;;;;;;6.27;74.15;97329.09;5075971;28;19949;-78
2021/10/23 03:01:49;;;;;;;;;;;;;;;6.29;74.33;97315.91;5075360;28;19979;-78
2021/10/23 03:04:15;;;;;;;;;;;;;;;6.30;74.43;97326.16;5075296;28;19956;-78
2021/10/23 03:06:44;;;;;;;;;;;;;;;6.31;74.50;97324.34;5075318;28;19951;-78
2021/10/23 03:09:12;;;;;;;;;;;;;;;6.28;74.68;97322.91;5075188;28;20416;-78
2021/10/23 03:11:38;;;;;;;;;;;;;;;6.28;74.77;97324.72;5075184;28;19961;-78
2021/10/23 03:14:04;;;;;;;;;;;;;;;6.28;75.07;97329.91;5075784;28;20431;-78
2021/10/23 03:16:30;;;;;;;;;;;;;;;6.26;74.87;97332.69;5075226;28;20327;-78
2021/10/23 03:18:56;;;;;;;;;;;;;;;6.28;74.86;97322.91;5075271;28;19966;-78
2021/10/23 03:21:22;;;;;;;;;;;;;;;6.29;74.86;97323.72;5073652;28;20042;-78
2021/10/23 03:23:48;;;;;;;;;;;;;;;6.32;74.72;97330.38;5074951;28;19962;-79
2021/10/23 03:26:14;;;;;;;;;;;;;;;6.34;74.77;97331.00;5074908;28;19960;-78
2021/10/23 03:28:40;;;;;;;;;;;;;;;6.33;74.64;97325.00;5075017;28;19954;-78
2021/10/23 03:31:06;;;;;;;;;;;;;;;6.33;75.10;97337.22;5074794;28;19970;-78
2021/10/23 03:33:32;;;;;;;;;;;;;;;6.34;74.99;97341.44;5073935;28;20404;-78
2021/10/23 03:35:58;;;;;;;;;;;;;;;6.34;75.25;97344.88;5074828;28;19959;-78
2021/10/23 03:38:24;;;;;;;;;;;;;;;6.35;74.95;97340.47;5075062;28;20408;-78
2021/10/23 03:40:50;;;;;;;;;;;;;;;6.35;75.00;97348.28;5074712;28;20047;-78
2021/10/23 03:43:15;;;;;;;;;;;;;;;6.35;74.86;97337.88;5074826;28;19954;-78
2021/10/23 03:45:41;;;;;;;;;;;;;;;6.35;74.74;97336.06;5074725;28;19958;-78
2021/10/23 03:48:07;;;;;;;;;;;;;;;6.35;74.74;97338.66;5074904;28;20399;-78
2021/10/23 03:50:33;;;;;;;;;;;;;;;6.36;74.45;97340.28;5074591;28;19958;-78
2021/10/23 03:52:59;;;;;;;;;;;;;;;6.37;74.60;97341.13;5074737;28;19983;-78
2021/10/23 03:55:25;;;;;;;;;;;;;;;6.37;74.46;97338.50;5074313;28;19956;-78
2021/10/23 03:57:51;;;;;;;;;;;;;;;6.38;74.40;97340.13;5074850;28;19975;-78
2021/10/23 04:00:17;;;;;;;;;;;;;;;6.37;74.35;97341.13;5074389;28;19957;-78
2021/10/23 04:02:45;;;;;;;;;;;;;;;6.37;73.99;97344.53;5074661;28;20321;-78
2021/10/23 04:05:11;;;;;;;;;;;;;;;6.37;73.74;97343.72;5074131;28;19964;-78
2021/10/23 04:07:37;;;;;;;;;;;;;;;6.36;74.05;97344.69;5074009;28;20391;-78
2021/10/23 04:10:03;;;;;;;;;;;;;;;6.36;73.93;97352.50;5073058;28;20007;-78
2021/10/23 04:12:30;;;;;;;;;;;;;;;6.34;73.56;97352.69;5074205;28;19955;-78
2021/10/23 04:14:56;;;;;;;;;;;;;;;6.35;73.85;97348.28;5073184;28;19960;-78
2021/10/23 04:17:21;;;;;;;;;;;;;;;6.33;74.45;97352.84;5073857;28;20013;-78
2021/10/23 04:19:47;;;;;;;;;;;;;;;6.33;73.76;97352.84;5072787;28;19978;-78
2021/10/23 04:22:13;;;;;;;;;;;;;;;6.28;73.37;97346.34;5074293;28;19986;-78
2021/10/23 04:24:39;;;;;;;;;;;;;;;6.26;73.61;97344.91;5074099;28;20430;-78
2021/10/23 04:27:05;;;;;;;;;;;;;;;6.25;73.85;97348.47;5073853;28;19950;-78
2021/10/23 04:29:31;;;;;;;;;;;;;;;6.25;73.84;97351.88;5074264;28;20048;-78
2021/10/23 04:31:57;;;;;;;;;;;;;;;6.27;73.79;97351.72;5073760;28;19957;-78
2021/10/23 04:34:23;;;;;;;;;;;;;;;6.26;73.91;97360.53;5073985;28;19956;-78
2021/10/23 04:36:49;;;;;;;;;;;;;;;6.25;74.22;97358.88;5073710;28;19965;-78
2021/10/23 04:39:15;;;;;;;;;;;;;;;6.26;74.00;97357.94;5073872;28;19964;-78
2021/10/23 04:41:41;;;;;;;;;;;;;;;6.27;74.18;97354.31;5073632;28;19948;-78
2021/10/23 04:44:07;;;;;;;;;;;;;;;6.28;74.79;97361.19;5073445;28;19964;-78
2021/10/23 04:46:33;;;;;;;;;;;;;;;6.28;74.45;97353.34;5073634;28;19954;-78
2021/10/23 04:48:59;;;;;;;;;;;;;;;6.29;74.48;97353.16;5073673;28;19956;-78
2021/10/23 04:51:25;;;;;;;;;;;;;;;6.31;74.46;97358.22;5073282;28;19953;-78
2021/10/23 04:53:53;;;;;;;;;;;;;;;6.29;74.35;97352.38;5073086;28;20484;-78
2021/10/23 04:56:19;;;;;;;;;;;;;;;6.29;74.11;97353.16;5073967;28;19955;-78
2021/10/23 04:58:45;;;;;;;;;;;;;;;6.29;74.26;97363.59;5073351;28;20424;-78
2021/10/23 05:01:12;;;;;;;;;;;;;;;6.29;74.64;97366.19;5073378;28;20330;-78
2021/10/23 05:03:38;;;;;;;;;;;;;;;6.29;74.50;97362.78;5073581;28;20333;-78
2021/10/23 05:06:03;;;;;;;;;;;;;;;6.28;74.21;97356.78;5073632;28;19996;-78
2021/10/23 05:08:29;;;;;;;;;;;;;;;6.28;74.32;97355.97;5072735;28;20012;-78
2021/10/23 05:10:55;;;;;;;;;;;;;;;6.26;73.93;97350.13;5073874;28;19952;-78
2021/10/23 05:13:21;;;;;;;;;;;;;;;6.23;74.40;97363.47;5073843;28;20000;-78
2021/10/23 05:15:47;;;;;;;;;;;;;;;6.21;74.44;97363.63;5073367;28;19962;-78
2021/10/23 05:18:13;;;;;;;;;;;;;;;6.19;74.57;97365.56;5072935;28;20429;-78
2021/10/23 05:20:39;;;;;;;;;;;;;;;6.19;74.99;97362.16;5073365;28;19947;-78
2021/10/23 05:23:05;;;;;;;;;;;;;;;6.20;74.70;97366.41;5073706;28;19981;-78
2021/10/23 05:25:31;;;;;;;;;;;;;;;6.22;74.94;97367.06;5073798;28;20000;-78
2021/10/23 05:27:57;;;;;;;;;;;;;;;6.22;74.96;97372.25;5073087;28;20392;-78
2021/10/23 05:30:22;;;;;;;;;;;;;;;6.23;75.16;97363.47;5073457;28;19960;-78
2021/10/23 05:32:48;;;;;;;;;;;;;;;6.23;74.95;97368.66;5073180;28;19957;-78
2021/10/23 05:35:14;;;;;;;;;;;;;;;6.24;75.11;97367.69;5073106;28;19952;-78
2021/10/23 05:37:40;;;;;;;;;;;;;;;6.23;75.04;97377.28;5073092;28;19986;-78
2021/10/23 05:40:06;;;;;;;;;;;;;;;6.21;74.93;97374.03;5073275;28;20367;-78
2021/10/23 05:42:32;;;;;;;;;;;;;;;6.22;75.20;97370.47;5073021;28;19957;-78
2021/10/23 05:44:58;;;;;;;;;;;;;;;6.22;75.12;97378.28;5073148;28;20039;-78
2021/10/23 05:47:24;;;;;;;;;;;;;;;6.23;75.43;97384.28;5073071;28;20042;-78
2021/10/23 05:49:50;;;;;;;;;;;;;;;6.23;75.45;97384.28;5073073;28;19960;-78
2021/10/23 05:52:16;;;;;;;;;;;;;;;6.22;75.62;97387.88;5071390;28;20095;-78
2021/10/23 05:54:42;;;;;;;;;;;;;;;6.21;75.20;97387.06;5072977;28;19962;-78
2021/10/23 05:57:09;;;;;;;;;;;;;;;6.23;75.23;97392.09;5076004;28;19996;-78
2021/10/23 05:59:43;;;;;;;;;;;;;;;6.23;75.17;97392.09;5076589;28;19955;-78
2021/10/23 06:02:28;;;;;;;;;;;;;;;6.20;75.06;97397.66;5076499;28;19963;-78
2021/10/23 06:04:55;;;;;;;;;;;;;;;6.17;75.38;97401.38;5076652;28;20399;-78
2021/10/23 06:07:21;;;;;;;;;;;;;;;6.17;75.29;97411.00;5076323;28;19941;-78
2021/10/23 06:09:48;;;;;;;;;;;;;;;6.15;75.60;97412.97;5076440;28;20432;-78
2021/10/23 06:12:14;;;;;;;;;;;;;;;6.13;75.86;97417.53;5076357;28;19957;-78
2021/10/23 06:14:40;;;;;;;;;;;;;;;6.13;75.56;97418.31;5076470;28;19963;-78
2021/10/23 06:17:06;;;;;;;;;;;;;;;6.14;75.42;97422.56;5076375;28;20378;-78
2021/10/23 06:19:32;;;;;;;;;;;;;;;6.14;75.46;97425.19;5076218;28;19953;-78
2021/10/23 06:21:58;;;;;;;;;;;;;;;6.13;75.47;97431.34;5076428;28;19963;-78
2021/10/23 06:24:25;;;;;;;;;;;;;;;6.10;75.33;97437.72;5076170;28;19959;-78
2021/10/23 06:26:51;;;;;;;;;;;;;;;6.03;75.28;97435.94;5076364;28;20325;-78
2021/10/23 06:29:17;;;;;;;;;;;;;;;5.98;75.33;97440.81;5074904;28;19963;-78
2021/10/23 06:31:43;;;;;;;;;;;;;;;5.96;75.86;97443.56;5076153;28;20323;-78
2021/10/23 06:34:08;;;;;;;;;;;;;;;6.00;76.38;97438.84;5076067;28;20047;-78
2021/10/23 06:36:34;;;;;;;;;;;;;;;6.03;75.93;97438.53;5076302;28;20467;-78
2021/10/23 06:39:00;;;;;;;;;;;;;;;6.04;75.92;97446.19;5075658;28;20406;-78
2021/10/23 06:41:26;;;;;;;;;;;;;;;6.06;75.49;97443.41;5075906;28;19949;-78
2021/10/23 06:43:52;;;;;;;;;;;;;;;6.08;75.89;97446.66;5075774;28;19952;-78
2021/10/23 06:46:20;;;;;;;;;;;;;;;6.06;76.02;97453.84;5075870;28;19993;-78
2021/10/23 06:48:46;;;;;;;;;;;;;;;6.05;75.77;97455.63;5075676;28;19957;-78
2021/10/23 06:51:11;;;;;;;;;;;;;;;6.05;75.86;97458.22;5075715;28;20332;-78
2021/10/23 06:53:37;;;;;;;;;;;;;;;6.02;76.01;97461.16;5076137;28;19983;-78
2021/10/23 06:56:03;;;;;;;;;;;;;;;6.03;76.24;97462.78;5075475;28;19970;-78
2021/10/23 06:58:29;;;;;;;;;;;;;;;6.05;75.30;97460.03;5075412;28;20053;-78
2021/10/23 07:00:55;;;;;;;;;;;;;;;6.06;75.16;97459.84;5075622;28;20050;-78
2021/10/23 07:03:21;;;;;;;;;;;;;;;6.04;75.18;97455.78;5075607;28;19957;-78
2021/10/23 07:05:47;;;;;;;;;;;;;;;6.03;75.60;97464.59;5075321;28;19953;-78
2021/10/23 07:08:13;;;;;;;;;;;;;;;6.05;75.51;97478.25;5075129;28;19960;-78
2021/10/23 07:10:39;;;;;;;;;;;;;;;6.06;75.00;97478.06;5075506;28;20058;-78
2021/10/23 07:13:05;;;;;;;;;;;;;;;6.09;75.23;97474.34;5075369;28;19959;-78
2021/10/23 07:15:31;;;;;;;;;;;;;;;6.14;75.49;97466.84;5075071;28;19969;-78
2021/10/23 07:17:58;;;;;;;;;;;;;;;6.16;74.19;97475.31;5075186;28;19973;-78
2021/10/23 07:20:27;;;;;;;;;;;;;;;6.17;74.52;97471.72;5074992;28;19954;-78
2021/10/23 07:22:53;;;;;;;;;;;;;;;6.20;74.15;97468.78;5074858;28;19960;-78
2021/10/23 07:25:19;;;;;;;;;;;;;;;6.19;74.34;97474.97;5075037;28;19962;-78
2021/10/23 07:27:45;;;;;;;;;;;;;;;6.19;74.13;97479.38;5074879;28;19953;-78
2021/10/23 07:30:11;;;;;;;;;;;;;;;6.20;74.30;97479.22;5073761;28;19953;-78
2021/10/23 07:32:38;;;;;;;;;;;;;;;6.24;73.11;97479.72;5074836;28;20470;-78
2021/10/23 07:35:04;;;;;;;;;;;;;;;6.26;72.69;97485.56;5074855;28;19949;-78
2021/10/23 07:37:30;;;;;;;;;;;;;;;6.26;74.43;97494.19;5074635;28;19974;-78
2021/10/23 07:39:57;;;;;;;;;;;;;;;6.34;73.89;97497.75;5074678;28;19966;-78
2021/10/23 07:42:23;;;;;;;;;;;;;;;6.37;73.87;97493.03;5074752;28;19954;-78
2021/10/23 07:44:48;;;;;;;;;;;;;;;6.42;73.64;97489.94;5074511;28;19954;-78
2021/10/23 07:47:14;;;;;;;;;;;;;;;6.38;72.88;97486.81;5075018;28;20006;-78
2021/10/23 07:49:41;;;;;;;;;;;;;;;6.42;73.14;97498.56;5074599;28;19982;-78
2021/10/23 07:52:07;;;;;;;;;;;;;;;6.45;72.64;97500.03;5074216;28;19989;-78
2021/10/23 07:54:33;;;;;;;;;;;;;;;6.53;73.32;97499.19;5074527;28;20331;-78
2021/10/23 07:56:59;;;;;;;;;;;;;;;6.58;72.82;97499.50;5074265;28;19958;-78
2021/10/23 07:59:26;;;;;;;;;;;;;;;6.62;72.69;97498.22;5075205;28;20273;-78
2021/10/23 08:02:02;;;;;;;;;;;;;;;6.71;73.01;97507.63;5074280;28;19963;-78
2021/10/23 08:04:29;;;;;;;;;;;;;;;6.84;72.58;97496.66;5063159;28;19960;-78
2021/10/23 08:06:55;;;;;;;;;;;;;;;7.01;72.61;97507.84;5074270;28;19954;-78
2021/10/23 08:09:21;;;;;;;;;;;;;;;7.34;71.83;97505.09;5074210;28;19954;-78
2021/10/23 08:11:47;;;;;;;;;;;;;;;7.53;70.97;97502.88;5074755;28;20384;-77
2021/10/23 08:14:14;;;;;;;;;;;;;;;7.54;69.96;97501.09;5074772;28;19962;-78
2021/10/23 08:16:40;;;;;;;;;;;;;;;7.44;69.61;97492.66;5074240;28;20428;-78
2021/10/23 08:19:07;;;;;;;;;;;;;;;7.47;70.18;97510.56;5073774;28;19969;-78
2021/10/23 08:21:34;;;;;;;;;;;;;;;7.59;69.83;97514.44;5074068;28;19960;-78
2021/10/23 08:24:00;;;;;;;;;;;;;;;7.73;70.08;97513.69;5073731;28;20402;-78
2021/10/23 08:26:27;;;;;;;;;;;;;;;7.91;69.92;97510.78;5074334;28;20035;-78
2021/10/23 08:28:54;;;;;;;;;;;;;;;8.08;69.57;97505.44;5073951;28;20323;-78
2021/10/23 08:31:20;;;;;;;;;;;;;;;8.19;69.52;97514.66;5073815;28;19964;-78
2021/10/23 08:33:46;;;;;;;;;;;;;;;8.25;68.76;97516.56;5072975;28;19953;-78
2021/10/23 08:36:13;;;;;;;;;;;;;;;8.31;68.87;97518.47;5073916;28;19961;-78
2021/10/23 08:38:39;;;;;;;;;;;;;;;8.33;68.68;97519.91;5073594;28;20333;-78
2021/10/23 08:41:06;;;;;;;;;;;;;;;8.36;68.92;97521.38;5073633;28;20309;-78
2021/10/23 08:43:33;;;;;;;;;;;;;;;8.34;68.35;97524.16;5073593;28;19959;-79
2021/10/23 08:45:59;;;;;;;;;;;;;;;8.26;68.45;97521.63;5073755;28;19951;-78
2021/10/23 08:48:26;;;;;;;;;;;;;;;8.24;69.08;97514.94;5073791;28;20300;-78
2021/10/23 08:50:52;;;;;;;;;;;;;;;8.29;68.93;97510.81;5073606;28;19955;-78
2021/10/23 08:53:19;;;;;;;;;;;;;;;8.46;67.50;97506.28;5072297;28;19981;-78
2021/10/23 08:55:45;;;;;;;;;;;;;;;8.63;68.15;97504.31;5073415;28;20314;-78
2021/10/23 08:58:16;;;;;;;;;;;;;;;8.80;67.54;97501.50;5073561;28;19961;-78
2021/10/23 09:00:43;;;;;;;;;;;;;;;8.96;67.24;97505.75;5073538;28;19953;-77
2021/10/23 09:03:09;;;;;;;;;;;;;;;9.13;67.38;97513.25;5073397;28;19955;-78
2021/10/23 09:05:36;;;;;;;;;;;;;;;9.37;67.89;97515.75;5073565;28;19959;-78
2021/10/23 09:08:10;;;;;;;;;;;;;;;9.57;67.69;97506.28;5073367;28;19953;-78
2021/10/23 09:10:37;;;;;;;;;;;;;;;9.78;67.37;97512.56;5073927;28;19956;-78
2021/10/23 09:13:07;;;;;;;;;;;;;;;9.95;67.15;97501.66;5073309;28;20016;-78
2021/10/23 09:15:38;;;;;;;;;;;;;;;10.12;66.34;97504.00;5073230;28;19955;-78
2021/10/23 09:18:04;;;;;;;;;;;;;;;10.24;64.98;97491.19;5073277;28;19963;-78
2021/10/23 09:20:36;;;;;;;;;;;;;;;10.38;65.14;97497.41;5073122;28;19960;-78
2021/10/23 09:23:01;;;;;;;;;;;;;;;10.49;64.15;97494.25;5073116;28;19975;-78
2021/10/23 09:25:35;;;;;;;;;;;;;;;10.49;64.41;97497.66;5073471;28;19957;-78
2021/10/23 09:28:09;;;;;;;;;;;;;;;10.47;61.80;97483.94;5073181;28;20321;-78
2021/10/23 09:30:37;;;;;;;;;;;;;;;10.39;63.74;97499.00;5075590;28;19946;-78
2021/10/23 09:33:05;;;;;;;;;;;;;;;10.35;64.50;97507.25;5077463;28;19960;-78
2021/10/23 09:35:32;;;;;;;;;;;;;;;10.40;62.41;97480.47;5076882;28;19956;-78
2021/10/23 09:37:59;;;;;;;;;;;;;;;10.43;63.36;97489.75;5076922;28;19974;-78
2021/10/23 09:40:26;;;;;;;;;;;;;;;10.51;64.46;97500.09;5077482;28;19956;-78
2021/10/23 09:43:09;;;;;;;;;;;;;;;10.67;63.51;97489.31;5076921;28;20401;-78
2021/10/23 09:45:36;;;;;;;;;;;;;;;10.77;64.48;97496.81;5064742;28;19966;-78
2021/10/23 09:48:09;;;;;;;;;;;;;;;10.86;64.39;97500.13;5076961;28;19967;-78
2021/10/23 09:50:36;;;;;;;;;;;;;;;10.96;62.09;97474.31;5076728;28;20437;-78
2021/10/23 09:53:06;;;;;;;;;;;;;;;11.10;63.92;97490.94;5076838;28;20356;-78
2021/10/23 09:55:33;;;;;;;;;;;;;;;11.27;62.78;97486.19;5076616;28;19960;-78
2021/10/23 09:58:35;;;;;;;;;;;;;;;11.37;60.43;97471.66;5076698;28;19976;-78
2021/10/23 10:01:01;;;;;;;;;;;;;;;11.45;59.51;97456.75;5085525;28;19958;-78
2021/10/23 10:03:29;;;;;;;;;;;;;;;11.37;59.57;97460.34;5072631;28;19948;-78
2021/10/23 10:05:55;;;;;;;;;;;;;;;11.36;61.56;97496.31;5076806;28;19953;-78
2021/10/23 10:08:21;;;;;;;;;;;;;;;11.50;63.14;97504.25;5076272;28;19947;-78
2021/10/23 10:10:48;;;;;;;;;;;;;;;11.66;60.85;97480.22;5076476;28;19945;-78
2021/10/23 10:13:15;;;;;;;;;;;;;;;11.78;61.43;97483.09;5076796;28;19985;-78
2021/10/23 10:15:45;;;;;;;;;;;;;;;11.85;61.63;97486.53;5076295;28;20438;-78
2021/10/23 10:18:13;;;;;;;;;;;;;;;11.95;60.23;97470.41;5076454;28;20449;-78
2021/10/23 10:20:42;;;;;;;;;;;;;;;11.83;59.36;97470.16;5076105;28;19960;-78
2021/10/23 10:23:10;;;;;;;;;;;;;;;11.61;61.16;97484.47;5075928;28;19975;-78
2021/10/23 10:25:39;;;;;;;;;;;;;;;11.36;58.88;97469.25;5076046;28;19955;-78
2021/10/23 10:28:09;;;;;;;;;;;;;;;10.97;60.66;97491.69;5076148;28;19946;-78
2021/10/23 10:30:37;;;;;;;;;;;;;;;10.69;61.84;97508.31;5076214;28;19987;-78
2021/10/23 10:33:21;;;;;;;;;;;;;;;10.56;63.62;97521.31;5075939;28;20437;-78
2021/10/23 10:36:14;;;;;;;;;;;;;;;10.50;63.77;97522.91;5075945;28;19967;-78
2021/10/23 10:38:56;;;;;;;;;;;;;;;10.49;64.24;97526.50;5075190;28;19995;-80
2021/10/23 10:44:09;;;;;;;;;;;;;;;10.55;63.12;97509.22;5076317;28;19981;-78
2021/10/23 10:47:02;;;;;;;;;;;;;;;10.66;61.49;97492.13;5075973;28;19945;-78
2021/10/23 10:49:40;;;;;;;;;;;;;;;10.73;61.05;97488.56;5074758;28;19954;-78
2021/10/23 10:52:25;;;;;;;;;;;;;;;10.85;57.70;97456.50;5067152;28;19980;-78
2021/10/23 10:55:10;;;;;;;;;;;;;;;10.94;58.54;97460.59;5075992;28;20327;-78
2021/10/23 10:57:55;;;;;;;;;;;;;;;11.12;58.85;97481.88;5075430;28;19953;-78
2021/10/23 11:00:21;;;;;;;;;;;;;;;11.24;57.46;97445.38;5075433;28;19960;-78
2021/10/23 11:02:47;;;;;;;;;;;;;;;11.49;58.42;97458.78;5075459;28;19961;-78
2021/10/23 11:05:24;;;;;;;;;;;;;;;11.68;57.20;97451.94;5075458;28;20328;-77
2021/10/23 11:08:07;;;;;;;;;;;;;;;11.79;54.08;97404.03;5075618;28;19952;-78
2021/10/23 11:10:48;;;;;;;;;;;;;;;11.92;57.50;97440.06;5075495;28;19969;-78
2021/10/23 11:13:35;;;;;;;;;;;;;;;12.14;57.00;97430.16;5075169;28;19960;-78
2021/10/23 11:16:20;;;;;;;;;;;;;;;12.40;56.72;97425.88;5075135;28;20364;-78
2021/10/23 11:18:53;;;;;;;;;;;;;;;12.55;54.62;97404.59;5075017;28;19969;-78
2021/10/23 11:21:19;;;;;;;;;;;;;;;12.28;54.83;97404.63;5074926;28;19952;-78
2021/10/23 11:23:50;;;;;;;;;;;;;;;12.25;55.79;97420.03;5074921;28;20029;-77
2021/10/23 11:26:16;;;;;;;;;;;;;;;12.32;49.58;97355.88;5075269;28;19965;-78
2021/10/23 11:28:42;;;;;;;;;;;;;;;12.36;53.92;97403.63;5075052;28;19965;-78
2021/10/23 11:31:21;;;;;;;;;;;;;;;12.39;53.37;97400.59;5075169;28;19958;-78
2021/10/23 11:33:47;;;;;;;;;;;;;;;12.23;54.11;97414.97;5074793;28;19957;-77
2021/10/23 11:36:14;;;;;;;;;;;;;;;12.01;53.84;97416.19;5074875;28;19962;-78
2021/10/23 11:38:40;;;;;;;;;;;;;;;11.72;54.17;97421.63;5074521;28;19979;-77
2021/10/23 11:41:06;;;;;;;;;;;;;;;11.62;55.35;97436.16;5074615;28;19954;-77
2021/10/23 11:43:39;;;;;;;;;;;;;;;11.56;55.93;97443.81;5074905;28;19994;-77
2021/10/23 11:46:06;;;;;;;;;;;;;;;11.55;56.09;97450.09;5074805;28;20401;-78
2021/10/23 11:48:32;;;;;;;;;;;;;;;11.57;55.13;97434.94;5075023;28;20368;-77
2021/10/23 11:50:58;;;;;;;;;;;;;;;11.76;55.51;97435.19;5074653;28;20341;-77
2021/10/23 11:53:26;;;;;;;;;;;;;;;12.00;55.18;97430.38;5073658;28;20019;-78
2021/10/23 11:55:55;;;;;;;;;;;;;;;12.21;54.75;97418.81;5074483;28;19964;-77
2021/10/23 11:58:25;;;;;;;;;;;;;;;12.36;53.42;97407.06;5074489;28;19963;-78
2021/10/23 12:01:03;;;;;;;;;;;;;;;12.44;51.37;97389.44;5062669;28;20008;-77
2021/10/23 12:03:30;;;;;;;;;;;;;;;12.56;48.68;97375.44;5058744;28;19968;-77
2021/10/23 12:05:56;;;;;;;;;;;;;;;12.55;48.32;97404.59;5074205;28;19961;-78
2021/10/23 12:08:29;;;;;;;;;;;;;;;12.43;46.88;97406.22;5074424;28;20029;-77
2021/10/23 12:11:04;;;;;;;;;;;;;;;12.36;45.91;97409.69;5074025;28;19952;-78
2021/10/23 12:13:41;;;;;;;;;;;;;;;12.50;50.07;97438.63;5074260;28;19979;-77
2021/10/23 12:16:07;;;;;;;;;;;;;;;12.68;50.48;97444.06;5074118;28;19959;-77
2021/10/23 12:18:34;;;;;;;;;;;;;;;12.87;52.12;97465.25;5074220;28;19982;-78
2021/10/23 12:21:09;;;;;;;;;;;;;;;12.99;52.70;97467.00;5073983;28;19964;-77
2021/10/23 12:23:55;;;;;;;;;;;;;;;12.99;52.85;97468.84;5073956;28;19966;-78
2021/10/23 12:26:27;;;;;;;;;;;;;;;12.87;52.99;97468.69;5074328;28;19950;-77
2021/10/23 12:28:54;;;;;;;;;;;;;;;12.70;52.97;97463.03;5073791;28;19970;-77
2021/10/23 12:31:20;;;;;;;;;;;;;;;12.53;53.33;97464.50;5074011;28;19960;-78
2021/10/23 12:34:06;;;;;;;;;;;;;;;12.37;54.58;97474.44;5073787;28;19959;-77
2021/10/23 12:36:33;;;;;;;;;;;;;;;12.19;53.87;97471.63;5073427;28;19958;-77
2021/10/23 12:39:17;;;;;;;;;;;;;;;12.10;54.74;97481.53;5073800;28;19959;-77
2021/10/23 12:41:43;;;;;;;;;;;;;;;12.04;55.30;97490.22;5063360;28;19966;-77
2021/10/23 12:44:11;;;;;;;;;;;;;;;11.90;53.04;97465.72;5073637;28;20334;-78
2021/10/23 12:46:37;;;;;;;;;;;;;;;11.76;55.52;97479.84;5073559;28;19962;-78
2021/10/23 12:49:03;;;;;;;;;;;;;;;11.72;57.08;97499.66;5073606;28;19955;-77
2021/10/23 12:51:31;;;;;;;;;;;;;;;11.71;56.03;97492.78;5073471;28;20319;-78
2021/10/23 12:53:58;;;;;;;;;;;;;;;11.70;56.47;97499.06;5074067;28;19970;-77
2021/10/23 12:56:24;;;;;;;;;;;;;;;11.66;54.50;97474.19;5073572;28;19957;-77
2021/10/23 12:58:50;;;;;;;;;;;;;;;11.55;52.34;97460.63;5073505;28;19983;-77
2021/10/23 13:01:16;;;;;;;;;;;;;;;11.62;52.44;97459.81;5073535;28;19961;-77